createdAt,value
2018-05-24T00:02:23.921Z,3.53
2018-05-24T00:04:52.957Z,3.25
2018-05-24T00:07:21.179Z,3.58
2018-05-24T00:09:49.515Z,3.20
2018-05-24T00:12:17.808Z,3.12
2018-05-24T00:14:46.072Z,3.73
2018-05-24T00:17:14.315Z,3.50
2018-05-24T00:19:42.907Z,3.67
2018-05-24T00:22:11.178Z,3.90
2018-05-24T00:24:39.424Z,3.22
2018-05-24T00:27:07.683Z,4.00
2018-05-24T00:29:36.695Z,3.60
2018-05-24T00:32:04.933Z,3.57
2018-05-24T00:34:33.235Z,2.90
2018-05-24T00:37:02.256Z,3.30
2018-05-24T00:39:30.517Z,3.60
2018-05-24T00:41:59.528Z,3.63
2018-05-24T00:44:27.760Z,4.10
2018-05-24T00:46:56.192Z,3.50
2018-05-24T00:49:25.927Z,3.87
2018-05-24T00:51:54.160Z,3.20
2018-05-24T00:54:23.440Z,3.37
2018-05-24T00:56:51.689Z,3.70
2018-05-24T00:59:19.920Z,3.90
2018-05-24T01:01:48.175Z,3.23
2018-05-24T01:04:16.492Z,3.43
2018-05-24T01:06:44.772Z,3.20
2018-05-24T01:09:13.781Z,3.40
2018-05-24T01:11:42.788Z,3.03
2018-05-24T01:14:11.029Z,3.60
2018-05-24T01:16:39.283Z,3.10
2018-05-24T01:19:07.952Z,2.93
2018-05-24T01:21:36.201Z,3.43
2018-05-24T01:24:05.956Z,3.03
2018-05-24T01:26:34.209Z,2.77
2018-05-24T01:29:03.256Z,2.97
2018-05-24T01:31:31.500Z,2.63
2018-05-24T01:33:59.746Z,2.70
2018-05-24T01:36:54.585Z,2.70
2018-05-24T01:39:22.836Z,2.80
2018-05-24T01:41:52.517Z,2.83
2018-05-24T01:44:20.773Z,2.97
2018-05-24T01:46:49.908Z,2.87
2018-05-24T01:49:18.151Z,2.80
2018-05-24T01:51:46.407Z,3.17
2018-05-24T01:54:15.390Z,2.92
2018-05-24T01:56:44.409Z,3.00
2018-05-24T01:59:12.683Z,2.57
2018-05-24T02:01:40.995Z,2.90
2018-05-24T02:04:09.220Z,3.17
2018-05-24T02:06:38.308Z,3.10
2018-05-24T02:09:06.536Z,2.90
2018-05-24T02:11:35.380Z,3.60
2018-05-24T02:14:03.628Z,3.15
2018-05-24T02:16:31.883Z,3.20
2018-05-24T02:19:00.239Z,2.50
2018-05-24T02:21:29.364Z,2.60
2018-05-24T02:23:57.600Z,3.30
2018-05-24T02:26:25.851Z,3.33
2018-05-24T02:28:54.077Z,2.83
2018-05-24T02:31:22.329Z,2.90
2018-05-24T02:33:50.675Z,2.63
2018-05-24T02:36:19.432Z,3.10
2018-05-24T02:38:47.684Z,2.87
2018-05-24T02:41:15.949Z,2.57
2018-05-24T02:43:44.184Z,3.40
2018-05-24T02:46:12.544Z,3.10
2018-05-24T02:48:40.822Z,3.07
2018-05-24T02:51:09.232Z,3.10
2018-05-24T02:53:37.469Z,2.70
2018-05-24T02:56:05.712Z,3.22
2018-05-24T02:58:34.712Z,3.00
2018-05-24T03:01:03.043Z,2.70
2018-05-24T03:03:31.309Z,3.33
2018-05-24T03:05:59.539Z,3.03
2018-05-24T03:08:28.548Z,3.27
2018-05-24T03:10:57.540Z,3.90
2018-05-24T03:13:26.561Z,3.10
2018-05-24T03:15:54.788Z,3.47
2018-05-24T03:18:23.928Z,3.13
2018-05-24T03:20:52.919Z,3.33
2018-05-24T03:23:21.934Z,3.67
2018-05-24T03:25:50.167Z,3.73
2018-05-24T03:28:18.609Z,3.60
2018-05-24T03:30:46.873Z,3.53
2018-05-24T03:33:15.882Z,3.70
2018-05-24T03:35:44.118Z,3.70
2018-05-24T03:38:12.400Z,3.97
2018-05-24T03:40:41.376Z,3.43
2018-05-24T03:43:09.629Z,3.60
2018-05-24T03:45:37.876Z,3.63
2018-05-24T03:48:06.883Z,3.93
2018-05-24T03:50:35.937Z,3.97
2018-05-24T03:53:04.248Z,3.63
2018-05-24T03:55:33.061Z,3.57
2018-05-24T03:58:02.095Z,3.87
2018-05-24T04:00:42.311Z,4.10
2018-05-24T04:03:22.519Z,3.70
2018-05-24T04:05:51.479Z,4.13
2018-05-24T04:08:20.335Z,3.43
2018-05-24T04:10:48.556Z,3.80
2018-05-24T04:13:16.909Z,3.73
2018-05-24T04:15:45.137Z,3.83
2018-05-24T04:18:13.405Z,3.57
2018-05-24T04:20:41.633Z,3.77
2018-05-24T04:23:09.975Z,3.47
2018-05-24T04:25:38.147Z,3.93
2018-05-24T04:28:06.400Z,3.90
2018-05-24T04:30:35.399Z,3.90
2018-05-24T04:33:04.508Z,3.93
2018-05-24T04:35:32.705Z,4.23
2018-05-24T04:38:00.968Z,4.23
2018-05-24T04:40:29.969Z,4.57
2018-05-24T04:42:58.998Z,4.70
2018-05-24T04:45:27.292Z,4.23
2018-05-24T04:47:55.548Z,4.00
2018-05-24T04:50:23.772Z,4.43
2018-05-24T04:52:52.488Z,4.17
2018-05-24T04:55:21.655Z,4.23
2018-05-24T04:57:50.609Z,5.30
2018-05-24T05:00:18.855Z,4.87
2018-05-24T05:02:47.127Z,5.17
2018-05-24T05:05:15.356Z,4.37
2018-05-24T05:07:43.614Z,4.90
2018-05-24T05:10:12.604Z,5.13
2018-05-24T05:12:41.673Z,4.70
2018-05-24T05:15:10.803Z,4.90
2018-05-24T05:17:39.197Z,4.97
2018-05-24T05:20:08.685Z,4.90
2018-05-24T05:22:36.974Z,5.00
2018-05-24T05:25:05.543Z,4.17
2018-05-24T05:27:33.693Z,4.73
2018-05-24T05:30:02.039Z,4.70
2018-05-24T05:32:31.042Z,4.50
2018-05-24T05:35:00.069Z,4.90
2018-05-24T05:37:28.298Z,5.33
2018-05-24T05:39:56.564Z,5.33
2018-05-24T05:42:24.825Z,4.87
2018-05-24T05:44:53.095Z,5.93
2018-05-24T05:47:22.059Z,6.13
2018-05-24T05:49:51.107Z,5.63
2018-05-24T05:52:20.117Z,6.45
2018-05-24T05:54:49.717Z,7.00
2018-05-24T05:57:18.059Z,6.37
2018-05-24T05:59:46.882Z,5.90
2018-05-24T06:02:15.118Z,5.57
2018-05-24T06:04:44.231Z,5.07
2018-05-24T06:07:13.248Z,5.53
2018-05-24T06:09:41.553Z,5.13
2018-05-24T06:12:10.521Z,5.00
2018-05-24T06:14:38.784Z,5.17
2018-05-24T06:17:07.802Z,4.97
2018-05-24T06:19:36.053Z,5.40
2018-05-24T06:22:04.287Z,5.77
2018-05-24T06:24:32.530Z,6.53
2018-05-24T06:27:01.548Z,5.13
2018-05-24T06:29:29.814Z,5.77
2018-05-24T06:31:58.864Z,5.70
2018-05-24T06:34:28.022Z,5.20
2018-05-24T06:36:57.023Z,5.50
2018-05-24T06:39:25.733Z,5.47
2018-05-24T06:41:53.968Z,6.20
2018-05-24T06:44:24.476Z,6.10
2018-05-24T06:46:52.709Z,6.07
2018-05-24T06:49:21.636Z,6.10
2018-05-24T06:51:49.913Z,6.87
2018-05-24T06:54:18.746Z,6.70
2018-05-24T06:56:46.959Z,6.80
2018-05-24T06:59:17.201Z,7.23
2018-05-24T07:01:45.446Z,6.83
2018-05-24T07:04:15.897Z,6.87
2018-05-24T07:06:44.139Z,6.33
2018-05-24T07:09:12.392Z,6.93
2018-05-24T07:11:41.072Z,6.37
2018-05-24T07:14:09.341Z,6.63
2018-05-24T07:16:37.623Z,6.20
2018-05-24T07:19:05.864Z,6.70
2018-05-24T07:21:34.110Z,6.03
2018-05-24T07:24:02.425Z,6.97
2018-05-24T07:26:30.692Z,6.87
2018-05-24T07:28:59.114Z,6.93
2018-05-24T07:31:28.580Z,7.23
2018-05-24T07:33:56.814Z,6.53
2018-05-24T07:36:25.206Z,6.17
2018-05-24T07:38:53.470Z,6.47
2018-05-24T07:41:23.058Z,6.93
2018-05-24T07:43:51.284Z,6.00
2018-05-24T07:46:19.601Z,6.40
2018-05-24T07:48:47.827Z,6.82
2018-05-24T07:51:16.096Z,6.35
2018-05-24T07:53:45.154Z,6.47
2018-05-24T07:56:13.755Z,6.87
2018-05-24T07:58:43.531Z,9.13
2018-05-24T08:01:11.912Z,7.57
2018-05-24T08:03:41.021Z,5.72
2018-05-24T08:06:09.283Z,7.77
2018-05-24T08:08:37.648Z,6.40
2018-05-24T08:11:05.841Z,7.40
2018-05-24T08:13:34.106Z,5.90
2018-05-24T08:16:03.303Z,6.13
2018-05-24T08:18:32.319Z,6.90
2018-05-24T08:21:01.537Z,6.30
2018-05-24T08:23:30.077Z,6.43
2018-05-24T08:25:58.468Z,7.63
2018-05-24T08:30:36.592Z,7.28
2018-05-24T08:33:04.840Z,6.55
2018-05-24T08:35:33.083Z,7.33
2018-05-24T08:38:02.078Z,7.27
2018-05-24T08:40:30.440Z,7.53
2018-05-24T08:42:59.490Z,7.00
2018-05-24T08:45:27.765Z,8.20
2018-05-24T08:47:56.093Z,6.57
2018-05-24T08:50:25.077Z,7.72
2018-05-24T08:52:53.308Z,7.60
2018-05-24T08:55:22.342Z,6.95
2018-05-24T08:57:50.595Z,8.00
2018-05-24T09:00:21.068Z,8.10
2018-05-24T09:02:49.319Z,7.93
2018-05-24T09:05:17.568Z,10.57
2018-05-24T09:07:45.820Z,8.20
2018-05-24T09:10:14.060Z,8.10
2018-05-24T09:12:42.895Z,8.20
2018-05-24T09:15:11.150Z,7.27
2018-05-24T09:17:39.391Z,7.45
2018-05-24T09:20:07.690Z,8.07
2018-05-24T09:22:37.786Z,8.90
2018-05-24T09:25:06.069Z,7.87
2018-05-24T09:27:34.314Z,8.00
2018-05-24T09:30:02.701Z,7.85
2018-05-24T09:32:31.686Z,7.65
2018-05-24T09:34:59.952Z,7.47
2018-05-24T09:37:29.712Z,8.80
2018-05-24T09:39:58.570Z,6.85
2018-05-24T09:42:26.861Z,8.70
2018-05-24T09:44:55.111Z,9.80
2018-05-24T09:47:24.170Z,8.27
2018-05-24T09:49:52.419Z,9.27
2018-05-24T09:52:20.744Z,9.25
2018-05-24T09:54:48.988Z,8.82
2018-05-24T09:57:17.250Z,9.70
2018-05-24T09:59:46.255Z,9.27
2018-05-24T10:02:14.530Z,8.80
2018-05-24T10:04:42.882Z,8.77
2018-05-24T10:07:11.835Z,8.57
2018-05-24T10:09:40.085Z,8.57
2018-05-24T10:12:09.081Z,8.63
2018-05-24T10:14:37.349Z,8.57
2018-05-24T10:17:05.630Z,8.93
2018-05-24T10:19:35.471Z,11.12
2018-05-24T10:22:03.796Z,8.05
2018-05-24T10:24:32.048Z,10.13
2018-05-24T10:27:00.929Z,8.65
2018-05-24T10:29:29.210Z,9.27
2018-05-24T10:31:57.424Z,9.57
2018-05-24T10:34:25.672Z,9.32
2018-05-24T10:36:53.920Z,9.75
2018-05-24T10:39:22.936Z,9.43
2018-05-24T10:41:51.970Z,9.20
2018-05-24T10:44:20.199Z,8.23
2018-05-24T10:46:49.221Z,8.95
2018-05-24T10:49:17.469Z,8.73
2018-05-24T10:51:45.744Z,8.48
2018-05-24T10:54:14.028Z,9.50
2018-05-24T10:56:42.325Z,9.70
2018-05-24T10:59:10.554Z,9.55
2018-05-24T11:01:38.824Z,11.50
2018-05-24T11:04:07.202Z,10.65
2018-05-24T11:06:36.071Z,8.48
2018-05-24T11:09:06.908Z,9.82
2018-05-24T11:11:37.249Z,9.15
2018-05-24T11:14:05.456Z,9.40
2018-05-24T11:16:34.124Z,9.77
2018-05-24T11:19:02.372Z,8.48
2018-05-24T11:21:30.625Z,9.85
2018-05-24T11:23:58.859Z,9.07
2018-05-24T11:26:27.868Z,9.38
2018-05-24T11:28:56.121Z,8.90
2018-05-24T11:31:26.023Z,9.15
2018-05-24T11:33:54.275Z,8.23
2018-05-24T11:36:23.377Z,7.45
2018-05-24T11:38:51.696Z,8.82
2018-05-24T11:41:19.950Z,7.93
2018-05-24T11:43:48.956Z,9.82
2018-05-24T11:46:17.246Z,9.57
2018-05-24T11:48:45.488Z,9.32
2018-05-24T11:51:13.755Z,7.60
2018-05-24T11:53:42.747Z,8.02
2018-05-24T11:56:11.759Z,10.23
2018-05-24T11:58:40.025Z,8.23
2018-05-24T12:01:09.184Z,8.90
2018-05-24T12:03:37.420Z,9.10
2018-05-24T12:06:05.699Z,8.65
2018-05-24T12:08:33.960Z,6.82
2018-05-24T12:11:02.972Z,5.82
2018-05-24T12:13:31.231Z,3.85
2018-05-24T12:16:00.316Z,4.53
2018-05-24T12:18:28.575Z,4.12
2018-05-24T12:20:56.805Z,3.15
2018-05-24T12:23:25.833Z,3.50
2018-05-24T12:25:54.058Z,3.25
2018-05-24T12:28:22.320Z,3.45
2018-05-24T12:30:51.405Z,3.62
2018-05-24T12:33:19.651Z,3.87
2018-05-24T12:35:48.669Z,3.92
2018-05-24T12:38:16.917Z,3.78
2018-05-24T12:40:45.923Z,4.50
2018-05-24T12:43:14.992Z,4.12
2018-05-24T12:45:43.381Z,4.62
2018-05-24T12:48:11.632Z,4.35
2018-05-24T12:50:39.886Z,4.35
2018-05-24T12:53:08.132Z,4.93
2018-05-24T12:55:36.397Z,4.65
2018-05-24T12:58:04.736Z,4.90
2018-05-24T13:00:33.671Z,4.93
2018-05-24T13:03:02.002Z,4.50
2018-05-24T13:05:30.992Z,4.35
2018-05-24T13:08:00.023Z,4.05
2018-05-24T13:10:28.257Z,4.53
2018-05-24T13:12:56.552Z,3.92
2018-05-24T13:15:24.794Z,4.20
2018-05-24T13:17:53.047Z,4.87
2018-05-24T13:20:22.062Z,4.80
2018-05-24T13:22:51.014Z,5.65
2018-05-24T13:25:20.012Z,6.85
2018-05-24T13:27:49.029Z,7.00
2018-05-24T13:30:17.253Z,6.03
2018-05-24T13:32:45.513Z,5.78
2018-05-24T13:35:13.763Z,7.40
2018-05-24T13:37:42.019Z,6.18
2018-05-24T13:40:11.021Z,6.80
2018-05-24T13:42:40.881Z,6.72
2018-05-24T13:45:09.135Z,6.30
2018-05-24T13:47:37.469Z,6.37
2018-05-24T13:50:05.736Z,7.68
2018-05-24T13:52:34.073Z,6.95
2018-05-24T13:55:02.279Z,7.15
2018-05-24T13:57:42.251Z,8.18
2018-05-24T14:00:10.871Z,8.25
2018-05-24T14:02:39.132Z,6.13
2018-05-24T14:05:08.109Z,6.30
2018-05-24T14:07:36.383Z,6.43
2018-05-24T14:10:04.663Z,6.32
2018-05-24T14:12:35.291Z,6.67
2018-05-24T14:15:04.352Z,5.83
2018-05-24T14:17:32.738Z,5.65
2018-05-24T14:20:00.939Z,6.20
2018-05-24T14:22:29.245Z,6.93
2018-05-24T14:24:57.555Z,5.97
2018-05-24T14:27:25.784Z,6.50
2018-05-24T14:29:54.030Z,5.65
2018-05-24T14:32:22.379Z,7.03
2018-05-24T14:34:51.474Z,5.43
2018-05-24T14:37:19.725Z,5.93
2018-05-24T14:39:48.744Z,5.87
2018-05-24T14:42:16.987Z,6.22
2018-05-24T14:44:46.008Z,7.18
2018-05-24T14:47:14.285Z,6.87
2018-05-24T14:49:44.291Z,6.50
2018-05-24T14:52:13.318Z,7.60
2018-05-24T14:54:42.083Z,8.07
2018-05-24T14:57:11.081Z,7.70
2018-05-24T14:59:40.103Z,6.80
2018-05-24T15:02:08.453Z,8.85
2018-05-24T15:04:36.728Z,8.18
2018-05-24T15:07:04.978Z,8.05
2018-05-24T15:09:33.591Z,7.90
2018-05-24T15:12:01.833Z,7.10
2018-05-24T15:14:30.079Z,8.68
2018-05-24T15:16:59.097Z,9.05
2018-05-24T15:19:27.644Z,8.27
2018-05-24T15:21:55.893Z,9.20
2018-05-24T15:24:24.145Z,9.95
2018-05-24T15:26:52.392Z,10.52
2018-05-24T15:29:21.432Z,10.15
2018-05-24T15:31:50.529Z,9.98
2018-05-24T15:34:18.793Z,8.57
2018-05-24T15:36:48.566Z,10.30
2018-05-24T15:39:16.839Z,12.02
2018-05-24T15:41:45.168Z,13.30
2018-05-24T15:44:14.191Z,12.18
2018-05-24T15:46:42.884Z,10.65
2018-05-24T15:49:11.166Z,11.05
2018-05-24T15:51:39.503Z,12.68
2018-05-24T15:54:07.753Z,12.00
2018-05-24T15:56:36.012Z,11.75
2018-05-24T15:59:04.900Z,11.65
2018-05-24T16:01:33.158Z,11.68
2018-05-24T16:04:02.187Z,11.25
2018-05-24T16:06:30.463Z,11.07
2018-05-24T16:08:58.725Z,12.48
2018-05-24T16:11:29.344Z,12.68
2018-05-24T16:13:58.368Z,12.98
2018-05-24T16:16:26.830Z,11.57
2018-05-24T16:18:55.093Z,12.07
2018-05-24T16:21:23.846Z,13.45
2018-05-24T16:23:52.097Z,11.95
2018-05-24T16:26:21.141Z,12.93
2018-05-24T16:28:49.398Z,12.40
2018-05-24T16:31:18.282Z,11.40
2018-05-24T16:33:47.285Z,11.75
2018-05-24T16:36:15.674Z,11.98
2018-05-24T16:38:43.965Z,12.05
2018-05-24T16:41:12.245Z,11.85
2018-05-24T16:43:41.114Z,10.05
2018-05-24T16:46:10.127Z,10.73
2018-05-24T16:48:38.430Z,11.02
2018-05-24T16:51:07.371Z,10.30
2018-05-24T16:53:36.339Z,10.52
2018-05-24T16:56:04.624Z,11.15
2018-05-24T16:58:34.122Z,10.75
2018-05-24T17:01:02.371Z,11.43
2018-05-24T17:03:31.400Z,10.77
2018-05-24T17:05:59.683Z,11.77
2018-05-24T17:08:27.908Z,11.32
2018-05-24T17:10:56.957Z,10.68
2018-05-24T17:13:26.103Z,13.05
2018-05-24T17:15:55.115Z,12.52
2018-05-24T17:18:24.237Z,10.20
2018-05-24T17:20:52.509Z,10.93
2018-05-24T17:23:21.535Z,10.23
2018-05-24T17:25:49.934Z,10.57
2018-05-24T17:28:18.202Z,9.93
2018-05-24T17:30:47.269Z,10.05
2018-05-24T17:33:15.623Z,9.20
2018-05-24T17:35:43.899Z,9.23
2018-05-24T17:38:12.151Z,10.10
2018-05-24T17:40:40.429Z,8.83
2018-05-24T17:43:09.925Z,9.60
2018-05-24T17:45:38.964Z,9.70
2018-05-24T17:48:08.109Z,8.88
2018-05-24T17:50:37.013Z,9.10
2018-05-24T17:53:06.680Z,10.13
2018-05-24T17:55:35.642Z,9.02
2018-05-24T17:58:04.371Z,9.85
2018-05-24T18:00:32.678Z,10.07
2018-05-24T18:03:00.941Z,8.20
2018-05-24T18:05:29.211Z,9.37
2018-05-24T18:07:59.070Z,8.73
2018-05-24T18:10:28.175Z,9.53
2018-05-24T18:12:56.455Z,9.77
2018-05-24T18:15:25.492Z,9.63
2018-05-24T18:17:54.347Z,8.93
2018-05-24T18:20:22.619Z,9.65
2018-05-24T18:22:51.901Z,8.77
2018-05-24T18:25:20.144Z,9.77
2018-05-24T18:27:48.403Z,9.10
2018-05-24T18:30:17.609Z,9.75
2018-05-24T18:32:47.569Z,9.60
2018-05-24T18:35:15.833Z,9.35
2018-05-24T18:37:44.135Z,9.23
2018-05-24T18:40:12.413Z,9.47
2018-05-24T18:42:40.776Z,10.47
2018-05-24T18:45:09.053Z,10.37
2018-05-24T18:47:37.383Z,10.20
2018-05-24T18:50:05.665Z,10.10
2018-05-24T18:52:33.997Z,10.73
2018-05-24T18:55:02.281Z,10.43
2018-05-24T18:57:30.574Z,10.60
2018-05-24T18:59:58.833Z,9.52
2018-05-24T19:02:27.143Z,9.63
2018-05-24T19:04:55.380Z,10.57
2018-05-24T19:07:24.868Z,10.57
2018-05-24T19:09:53.151Z,8.63
2018-05-24T19:12:21.468Z,11.12
2018-05-24T19:14:49.726Z,10.33
2018-05-24T19:17:18.769Z,10.30
2018-05-24T19:19:47.256Z,9.87
2018-05-24T19:22:15.526Z,10.07
2018-05-24T19:24:43.771Z,10.53
2018-05-24T19:27:12.823Z,10.43
2018-05-24T19:29:41.110Z,9.43
2018-05-24T19:32:09.363Z,11.60
2018-05-24T19:34:37.631Z,11.27
2018-05-24T19:37:06.688Z,10.65
2018-05-24T19:39:34.962Z,9.37
2018-05-24T19:42:04.199Z,11.40
2018-05-24T19:44:33.709Z,12.15
2018-05-24T19:47:02.803Z,11.05
2018-05-24T19:49:32.696Z,11.07
2018-05-24T19:52:00.967Z,10.75
2018-05-24T19:54:29.240Z,10.40
2018-05-24T19:56:57.589Z,10.32
2018-05-24T19:59:25.851Z,9.85
2018-05-24T20:01:55.238Z,10.73
2018-05-24T20:04:23.696Z,12.07
2018-05-24T20:06:52.029Z,13.00
2018-05-24T20:09:21.941Z,13.90
2018-05-24T20:11:50.988Z,14.68
2018-05-24T20:14:19.489Z,12.50
2018-05-24T20:16:47.776Z,11.93
2018-05-24T20:19:16.640Z,13.90
2018-05-24T20:21:44.927Z,12.98
2018-05-24T20:24:13.175Z,10.27
2018-05-24T20:26:42.231Z,10.45
2018-05-24T20:29:10.509Z,10.98
2018-05-24T20:31:38.820Z,11.90
2018-05-24T20:34:07.098Z,12.50
2018-05-24T20:36:35.357Z,11.07
2018-05-24T20:39:03.678Z,12.40
2018-05-24T20:41:32.148Z,13.65
2018-05-24T20:44:00.468Z,15.43
2018-05-24T20:46:30.775Z,13.30
2018-05-24T20:48:59.015Z,13.35
2018-05-24T20:51:27.275Z,13.05
2018-05-24T20:53:55.662Z,13.60
2018-05-24T20:56:23.969Z,13.40
2018-05-24T20:58:52.221Z,13.40
2018-05-24T21:01:20.479Z,14.20
2018-05-24T21:03:48.807Z,13.98
2018-05-24T21:06:17.823Z,13.23
2018-05-24T21:08:46.556Z,13.90
2018-05-24T21:11:14.814Z,15.32
2018-05-24T21:13:44.636Z,14.35
2018-05-24T21:16:13.444Z,13.60
2018-05-24T21:18:42.563Z,15.07
2018-05-24T21:21:11.572Z,14.83
2018-05-24T21:23:40.581Z,15.10
2018-05-24T21:26:08.857Z,15.57
2018-05-24T21:28:37.608Z,15.93
2018-05-24T21:31:06.631Z,17.10
2018-05-24T21:33:34.920Z,14.68
2018-05-24T21:36:03.148Z,16.10
2018-05-24T21:38:32.216Z,16.07
2018-05-24T21:41:00.490Z,15.35
2018-05-24T21:43:28.849Z,14.80
2018-05-24T21:45:57.103Z,16.20
2018-05-24T21:48:26.997Z,18.03
2018-05-24T21:50:55.983Z,16.27
2018-05-24T21:53:24.231Z,15.83
2018-05-24T21:55:52.476Z,16.83
2018-05-24T21:58:21.511Z,17.37
2018-05-24T22:00:50.760Z,17.90
2018-05-24T22:03:19.791Z,17.40
2018-05-24T22:05:48.806Z,16.87
2018-05-24T22:08:17.095Z,19.20
2018-05-24T22:10:45.335Z,18.03
2018-05-24T22:13:14.382Z,19.97
2018-05-24T22:15:42.627Z,17.08
2018-05-24T22:18:11.719Z,19.53
2018-05-24T22:20:40.762Z,16.07
2018-05-24T22:23:09.040Z,16.80
2018-05-24T22:25:37.373Z,17.50
2018-05-24T22:28:06.523Z,18.40
2018-05-24T22:30:34.761Z,18.53
2018-05-24T22:33:03.127Z,17.83
2018-05-24T22:35:31.415Z,19.07
2018-05-24T22:37:59.703Z,19.37
2018-05-24T22:40:28.019Z,18.80
2018-05-24T22:42:57.012Z,17.43
2018-05-24T22:45:26.188Z,18.20
2018-05-24T22:47:54.525Z,16.52
2018-05-24T22:50:24.186Z,17.30
2018-05-24T22:52:52.428Z,17.03
2018-05-24T22:55:20.692Z,19.67
2018-05-24T22:57:48.958Z,18.63
2018-05-24T23:00:17.784Z,19.00
2018-05-24T23:02:46.062Z,18.63
2018-05-24T23:05:14.363Z,16.27
2018-05-24T23:07:42.605Z,18.87
2018-05-24T23:10:10.893Z,18.00
2018-05-24T23:12:39.196Z,17.05
2018-05-24T23:15:07.700Z,17.87
2018-05-24T23:17:36.216Z,17.13
2018-05-24T23:20:04.552Z,17.57
2018-05-24T23:22:37.692Z,18.53
2018-05-24T23:25:06.739Z,19.07
2018-05-24T23:27:35.024Z,19.13
2018-05-24T23:30:03.293Z,18.27
2018-05-24T23:32:31.668Z,18.77
2018-05-24T23:34:59.920Z,20.83
2018-05-24T23:37:28.948Z,19.70
2018-05-24T23:39:57.347Z,20.40
2018-05-24T23:42:26.460Z,20.90
2018-05-24T23:44:54.739Z,21.00
2018-05-24T23:47:23.040Z,23.57
2018-05-24T23:49:51.325Z,22.80
2018-05-24T23:52:19.599Z,22.53
2018-05-24T23:54:47.880Z,26.77
2018-05-24T23:57:17.008Z,29.27
2018-05-24T23:59:46.124Z,27.05
